sensor_id;sensor_type;location;lat;lon;timestamp;pressure;altitude;pressure_sealevel;temperature;humidity
22550;BME280;11441;57.164;-2.120;2023-03-16T00:00:32;99901.09;;;3.72;100.00
22550;BME280;11441;57.164;-2.120;2023-03-16T00:02:59;99890.47;;;3.79;100.00
22550;BME280;11441;57.164;-2.120;2023-03-16T00:05:27;99892.91;;;3.72;100.00
22550;BME280;11441;57.164;-2.120;2023-03-16T00:07:54;99881.56;;;3.70;100.00
22550;BME280;11441;57.164;-2.120;2023-03-16T00:10:21;99879.16;;;3.68;100.00
22550;BME280;11441;57.164;-2.120;2023-03-16T00:12:53;99869.47;;;3.80;100.00
22550;BME280;11441;57.164;-2.120;2023-03-16T00:15:20;99872.66;;;3.61;100.00
22550;BME280;11441;57.164;-2.120;2023-03-16T00:17:47;99859.91;;;3.73;100.00
22550;BME280;11441;57.164;-2.120;2023-03-16T00:20:17;99874.53;;;3.90;100.00
22550;BME280;11441;57.164;-2.120;2023-03-16T00:22:44;99863.88;;;3.76;100.00
22550;BME280;11441;57.164;-2.120;2023-03-16T00:25:12;99870.28;;;3.80;100.00
22550;BME280;11441;57.164;-2.120;2023-03-16T00:27:42;99859.25;;;3.76;100.00
22550;BME280;11441;57.164;-2.120;2023-03-16T00:30:09;99855.59;;;3.93;100.00
22550;BME280;11441;57.164;-2.120;2023-03-16T00:32:37;99844.25;;;3.91;100.00
22550;BME280;11441;57.164;-2.120;2023-03-16T00:35:05;99846.50;;;3.89;100.00
22550;BME280;11441;57.164;-2.120;2023-03-16T00:37:35;99841.72;;;3.86;100.00
22550;BME280;11441;57.164;-2.120;2023-03-16T00:40:03;99839.50;;;3.80;100.00
22550;BME280;11441;57.164;-2.120;2023-03-16T00:42:33;99840.66;;;4.00;100.00
22550;BME280;11441;57.164;-2.120;2023-03-16T00:45:00;99833.81;;;3.93;100.00
22550;BME280;11441;57.164;-2.120;2023-03-16T00:47:30;99823.28;;;4.13;100.00
22550;BME280;11441;57.164;-2.120;2023-03-16T00:49:57;99815.38;;;3.99;100.00
22550;BME280;11441;57.164;-2.120;2023-03-16T00:52:26;99811.75;;;4.07;100.00
22550;BME280;11441;57.164;-2.120;2023-03-16T00:54:54;99807.69;;;4.34;100.00
22550;BME280;11441;57.164;-2.120;2023-03-16T00:57:23;99796.06;;;4.25;100.00
22550;BME280;11441;57.164;-2.120;2023-03-16T01:00:09;99792.41;;;4.21;100.00
22550;BME280;11441;57.164;-2.120;2023-03-16T01:02:43;99754.72;;;4.23;100.00
22550;BME280;11441;57.164;-2.120;2023-03-16T01:05:13;99760.50;;;4.22;100.00
22550;BME280;11441;57.164;-2.120;2023-03-16T01:07:40;99754.28;;;4.33;100.00
22550;BME280;11441;57.164;-2.120;2023-03-16T01:10:09;99740.50;;;4.18;100.00
22550;BME280;11441;57.164;-2.120;2023-03-16T01:12:36;99734.50;;;4.24;100.00
22550;BME280;11441;57.164;-2.120;2023-03-16T01:15:04;99728.00;;;4.17;100.00
22550;BME280;11441;57.164;-2.120;2023-03-16T01:17:31;99712.06;;;4.40;100.00
22550;BME280;11441;57.164;-2.120;2023-03-16T01:20:01;99698.88;;;4.42;100.00
22550;BME280;11441;57.164;-2.120;2023-03-16T01:22:33;99678.06;;;4.37;100.00
22550;BME280;11441;57.164;-2.120;2023-03-16T01:25:00;99679.19;;;4.24;100.00
22550;BME280;11441;57.164;-2.120;2023-03-16T01:27:27;99682.81;;;4.28;100.00
22550;BME280;11441;57.164;-2.120;2023-03-16T01:29:54;99672.88;;;4.32;100.00
22550;BME280;11441;57.164;-2.120;2023-03-16T01:32:21;99663.19;;;4.34;100.00
22550;BME280;11441;57.164;-2.120;2023-03-16T01:34:48;99656.53;;;4.57;100.00
22550;BME280;11441;57.164;-2.120;2023-03-16T01:37:16;99660.38;;;4.43;100.00
22550;BME280;11441;57.164;-2.120;2023-03-16T01:39:51;99648.56;;;4.39;100.00
22550;BME280;11441;57.164;-2.120;2023-03-16T01:42:18;99647.28;;;4.37;100.00
22550;BME280;11441;57.164;-2.120;2023-03-16T01:44:55;99634.81;;;4.36;100.00
22550;BME280;11441;57.164;-2.120;2023-03-16T01:47:28;99629.94;;;4.41;100.00
22550;BME280;11441;57.164;-2.120;2023-03-16T01:50:14;99619.59;;;4.47;100.00
22550;BME280;11441;57.164;-2.120;2023-03-16T01:52:43;99611.41;;;4.34;100.00
22550;BME280;11441;57.164;-2.120;2023-03-16T01:55:12;99605.38;;;4.29;100.00
22550;BME280;11441;57.164;-2.120;2023-03-16T01:57:42;99611.28;;;4.56;100.00
22550;BME280;11441;57.164;-2.120;2023-03-16T02:00:13;99600.16;;;4.48;100.00
22550;BME280;11441;57.164;-2.120;2023-03-16T02:03:12;99589.81;;;4.54;100.00
22550;BME280;11441;57.164;-2.120;2023-03-16T02:06:01;99583.69;;;4.69;100.00
22550;BME280;11441;57.164;-2.120;2023-03-16T02:08:33;99572.88;;;4.73;100.00
22550;BME280;11441;57.164;-2.120;2023-03-16T02:11:03;99555.53;;;4.53;100.00
22550;BME280;11441;57.164;-2.120;2023-03-16T02:13:48;99550.06;;;4.65;100.00
22550;BME280;11441;57.164;-2.120;2023-03-16T02:16:17;99547.34;;;4.53;100.00
22550;BME280;11441;57.164;-2.120;2023-03-16T02:18:47;99541.28;;;4.60;100.00
22550;BME280;11441;57.164;-2.120;2023-03-16T02:23:47;99535.81;;;4.60;100.00
22550;BME280;11441;57.164;-2.120;2023-03-16T02:29:17;99519.22;;;4.65;100.00
22550;BME280;11441;57.164;-2.120;2023-03-16T02:31:48;99515.34;;;4.78;100.00
22550;BME280;11441;57.164;-2.120;2023-03-16T02:34:34;99505.31;;;4.82;100.00
22550;BME280;11441;57.164;-2.120;2023-03-16T02:37:02;99502.16;;;4.80;100.00
22550;BME280;11441;57.164;-2.120;2023-03-16T02:39:29;99491.69;;;4.82;100.00
22550;BME280;11441;57.164;-2.120;2023-03-16T02:41:56;99486.13;;;4.79;100.00
22550;BME280;11441;57.164;-2.120;2023-03-16T02:44:26;99466.34;;;4.82;100.00
22550;BME280;11441;57.164;-2.120;2023-03-16T02:47:39;99469.69;;;5.03;100.00
22550;BME280;11441;57.164;-2.120;2023-03-16T02:50:08;99467.47;;;4.93;100.00
22550;BME280;11441;57.164;-2.120;2023-03-16T02:52:36;99453.34;;;4.91;100.00
22550;BME280;11441;57.164;-2.120;2023-03-16T02:55:05;99445.94;;;5.04;100.00
22550;BME280;11441;57.164;-2.120;2023-03-16T02:57:32;99434.81;;;4.97;100.00
22550;BME280;11441;57.164;-2.120;2023-03-16T03:00:05;99434.72;;;4.93;100.00
22550;BME280;11441;57.164;-2.120;2023-03-16T03:02:39;99430.84;;;4.94;100.00
22550;BME280;11441;57.164;-2.120;2023-03-16T03:05:07;99425.44;;;4.82;100.00
22550;BME280;11441;57.164;-2.120;2023-03-16T03:07:34;99432.34;;;4.91;100.00
22550;BME280;11441;57.164;-2.120;2023-03-16T03:10:05;99435.44;;;5.06;100.00
22550;BME280;11441;57.164;-2.120;2023-03-16T03:12:33;99431.75;;;4.98;100.00
22550;BME280;11441;57.164;-2.120;2023-03-16T03:15:04;99417.84;;;5.03;100.00
22550;BME280;11441;57.164;-2.120;2023-03-16T03:17:38;99417.63;;;4.96;100.00
22550;BME280;11441;57.164;-2.120;2023-03-16T03:20:06;99403.53;;;4.94;100.00
22550;BME280;11441;57.164;-2.120;2023-03-16T03:22:39;99405.44;;;5.06;100.00
22550;BME280;11441;57.164;-2.120;2023-03-16T03:25:08;99407.28;;;5.02;100.00
22550;BME280;11441;57.164;-2.120;2023-03-16T03:27:34;99398.91;;;4.95;100.00
22550;BME280;11441;57.164;-2.120;2023-03-16T03:30:05;99395.69;;;4.93;100.00
22550;BME280;11441;57.164;-2.120;2023-03-16T03:32:32;99389.84;;;5.06;100.00
22550;BME280;11441;57.164;-2.120;2023-03-16T03:34:59;99397.69;;;5.08;100.00
22550;BME280;11441;57.164;-2.120;2023-03-16T03:37:26;99381.22;;;5.04;100.00
22550;BME280;11441;57.164;-2.120;2023-03-16T03:40:14;99377.75;;;4.91;100.00
22550;BME280;11441;57.164;-2.120;2023-03-16T03:42:45;99362.19;;;4.92;100.00
22550;BME280;11441;57.164;-2.120;2023-03-16T03:45:13;99369.50;;;5.04;100.00
22550;BME280;11441;57.164;-2.120;2023-03-16T03:47:42;99370.03;;;5.09;100.00
22550;BME280;11441;57.164;-2.120;2023-03-16T03:50:14;99348.72;;;4.99;100.00
22550;BME280;11441;57.164;-2.120;2023-03-16T03:53:07;99353.06;;;5.16;100.00
22550;BME280;11441;57.164;-2.120;2023-03-16T03:55:44;99345.47;;;5.25;100.00
22550;BME280;11441;57.164;-2.120;2023-03-16T03:58:12;99345.47;;;5.09;100.00
22550;BME280;11441;57.164;-2.120;2023-03-16T04:00:39;99343.19;;;5.12;100.00
22550;BME280;11441;57.164;-2.120;2023-03-16T04:03:06;99338.47;;;5.24;100.00
22550;BME280;11441;57.164;-2.120;2023-03-16T04:05:41;99327.63;;;5.12;100.00
22550;BME280;11441;57.164;-2.120;2023-03-16T04:08:08;99333.25;;;5.19;100.00
22550;BME280;11441;57.164;-2.120;2023-03-16T04:10:35;99327.97;;;5.26;100.00
22550;BME280;11441;57.164;-2.120;2023-03-16T04:13:02;99321.19;;;5.20;100.00
22550;BME280;11441;57.164;-2.120;2023-03-16T04:15:32;99321.81;;;5.29;100.00
22550;BME280;11441;57.164;-2.120;2023-03-16T04:18:19;99310.81;;;5.26;100.00
22550;BME280;11441;57.164;-2.120;2023-03-16T04:20:46;99311.16;;;5.24;100.00
22550;BME280;11441;57.164;-2.120;2023-03-16T04:23:35;99311.69;;;5.30;100.00
22550;BME280;11441;57.164;-2.120;2023-03-16T04:26:02;99310.00;;;5.25;100.00
22550;BME280;11441;57.164;-2.120;2023-03-16T04:28:31;99300.94;;;5.21;100.00
22550;BME280;11441;57.164;-2.120;2023-03-16T04:31:02;99291.59;;;5.38;100.00
22550;BME280;11441;57.164;-2.120;2023-03-16T04:33:36;99284.53;;;5.37;100.00
22550;BME280;11441;57.164;-2.120;2023-03-16T04:36:05;99274.59;;;5.29;100.00
22550;BME280;11441;57.164;-2.120;2023-03-16T04:38:35;99271.84;;;5.29;100.00
22550;BME280;11441;57.164;-2.120;2023-03-16T04:41:03;99266.56;;;5.36;100.00
22550;BME280;11441;57.164;-2.120;2023-03-16T04:43:35;99249.66;;;5.31;100.00
22550;BME280;11441;57.164;-2.120;2023-03-16T04:46:20;99250.91;;;5.33;100.00
22550;BME280;11441;57.164;-2.120;2023-03-16T04:48:47;99248.06;;;5.45;100.00
22550;BME280;11441;57.164;-2.120;2023-03-16T04:51:14;99230.16;;;5.48;100.00
22550;BME280;11441;57.164;-2.120;2023-03-16T04:54:00;99235.69;;;5.52;100.00
22550;BME280;11441;57.164;-2.120;2023-03-16T04:56:32;99235.41;;;5.37;100.00
22550;BME280;11441;57.164;-2.120;2023-03-16T04:59:03;99233.09;;;5.39;100.00
22550;BME280;11441;57.164;-2.120;2023-03-16T05:01:40;99219.16;;;5.44;100.00
22550;BME280;11441;57.164;-2.120;2023-03-16T05:04:10;99230.78;;;5.41;100.00
22550;BME280;11441;57.164;-2.120;2023-03-16T05:06:45;99227.63;;;5.39;100.00
22550;BME280;11441;57.164;-2.120;2023-03-16T05:09:33;99214.97;;;5.31;100.00
22550;BME280;11441;57.164;-2.120;2023-03-16T05:12:00;99215.16;;;5.38;100.00
22550;BME280;11441;57.164;-2.120;2023-03-16T05:14:46;99197.94;;;5.38;100.00
22550;BME280;11441;57.164;-2.120;2023-03-16T05:17:35;99209.41;;;5.43;100.00
22550;BME280;11441;57.164;-2.120;2023-03-16T05:20:03;99197.41;;;5.48;100.00
22550;BME280;11441;57.164;-2.120;2023-03-16T05:22:35;99207.69;;;5.55;100.00
22550;BME280;11441;57.164;-2.120;2023-03-16T05:25:27;99193.81;;;5.44;100.00
22550;BME280;11441;57.164;-2.120;2023-03-16T05:27:56;99198.50;;;5.63;100.00
22550;BME280;11441;57.164;-2.120;2023-03-16T05:30:58;99173.28;;;5.34;100.00
22550;BME280;11441;57.164;-2.120;2023-03-16T05:33:26;99181.44;;;5.50;100.00
22550;BME280;11441;57.164;-2.120;2023-03-16T05:36:00;99176.44;;;5.52;100.00
22550;BME280;11441;57.164;-2.120;2023-03-16T05:38:29;99176.66;;;5.63;100.00
22550;BME280;11441;57.164;-2.120;2023-03-16T05:40:57;99169.66;;;5.65;100.00
22550;BME280;11441;57.164;-2.120;2023-03-16T05:43:46;99165.72;;;5.63;100.00
22550;BME280;11441;57.164;-2.120;2023-03-16T05:46:14;99162.56;;;5.61;100.00
22550;BME280;11441;57.164;-2.120;2023-03-16T05:49:02;99127.50;;;5.43;100.00
22550;BME280;11441;57.164;-2.120;2023-03-16T05:51:29;99153.06;;;5.55;100.00
22550;BME280;11441;57.164;-2.120;2023-03-16T05:53:56;99153.06;;;5.55;100.00
22550;BME280;11441;57.164;-2.120;2023-03-16T05:56:31;99153.91;;;5.59;100.00
22550;BME280;11441;57.164;-2.120;2023-03-16T05:58:59;99148.69;;;5.70;100.00
22550;BME280;11441;57.164;-2.120;2023-03-16T06:01:26;99156.06;;;5.50;100.00
22550;BME280;11441;57.164;-2.120;2023-03-16T06:03:53;99156.94;;;5.54;100.00
22550;BME280;11441;57.164;-2.120;2023-03-16T06:06:24;99155.94;;;5.62;100.00
22550;BME280;11441;57.164;-2.120;2023-03-16T06:08:57;99132.25;;;5.66;100.00
22550;BME280;11441;57.164;-2.120;2023-03-16T06:11:43;99143.31;;;5.73;100.00
22550;BME280;11441;57.164;-2.120;2023-03-16T06:14:12;99145.97;;;5.70;100.00
22550;BME280;11441;57.164;-2.120;2023-03-16T06:16:39;99141.22;;;5.66;100.00
22550;BME280;11441;57.164;-2.120;2023-03-16T06:19:07;99126.84;;;5.70;100.00
22550;BME280;11441;57.164;-2.120;2023-03-16T06:21:34;99133.78;;;5.86;100.00
22550;BME280;11441;57.164;-2.120;2023-03-16T06:24:07;99135.97;;;5.77;100.00
22550;BME280;11441;57.164;-2.120;2023-03-16T06:26:35;99132.38;;;5.73;100.00
22550;BME280;11441;57.164;-2.120;2023-03-16T06:29:05;99125.03;;;5.77;100.00
22550;BME280;11441;57.164;-2.120;2023-03-16T06:31:34;99114.94;;;5.81;100.00
22550;BME280;11441;57.164;-2.120;2023-03-16T06:34:02;99132.66;;;5.88;100.00
22550;BME280;11441;57.164;-2.120;2023-03-16T06:36:29;99123.47;;;5.96;100.00
22550;BME280;11441;57.164;-2.120;2023-03-16T06:38:59;99115.63;;;5.75;100.00
22550;BME280;11441;57.164;-2.120;2023-03-16T06:41:47;99118.78;;;5.77;100.00
22550;BME280;11441;57.164;-2.120;2023-03-16T06:44:15;99107.50;;;5.78;100.00
22550;BME280;11441;57.164;-2.120;2023-03-16T06:46:52;99104.75;;;5.78;100.00
22550;BME280;11441;57.164;-2.120;2023-03-16T06:49:19;99101.59;;;5.76;100.00
22550;BME280;11441;57.164;-2.120;2023-03-16T06:51:47;99087.50;;;5.74;100.00
22550;BME280;11441;57.164;-2.120;2023-03-16T06:54:14;99089.38;;;5.70;100.00
22550;BME280;11441;57.164;-2.120;2023-03-16T06:56:42;99089.31;;;5.66;100.00
22550;BME280;11441;57.164;-2.120;2023-03-16T06:59:11;99092.13;;;5.70;100.00
22550;BME280;11441;57.164;-2.120;2023-03-16T07:01:38;99089.50;;;5.77;100.00
22550;BME280;11441;57.164;-2.120;2023-03-16T07:04:05;99084.75;;;5.74;100.00
22550;BME280;11441;57.164;-2.120;2023-03-16T07:06:33;99090.22;;;5.74;100.00
22550;BME280;11441;57.164;-2.120;2023-03-16T07:08:59;99089.66;;;5.65;100.00
22550;BME280;11441;57.164;-2.120;2023-03-16T07:11:30;99075.00;;;5.54;100.00
22550;BME280;11441;57.164;-2.120;2023-03-16T07:13:58;99066.59;;;5.62;100.00
22550;BME280;11441;57.164;-2.120;2023-03-16T07:16:26;99080.19;;;5.78;100.00
22550;BME280;11441;57.164;-2.120;2023-03-16T07:18:56;99077.00;;;5.76;100.00
22550;BME280;11441;57.164;-2.120;2023-03-16T07:21:23;99077.59;;;5.66;100.00
22550;BME280;11441;57.164;-2.120;2023-03-16T07:24:13;99067.78;;;5.84;100.00
22550;BME280;11441;57.164;-2.120;2023-03-16T07:26:41;99078.72;;;5.84;100.00
22550;BME280;11441;57.164;-2.120;2023-03-16T07:29:12;99045.53;;;5.63;100.00
22550;BME280;11441;57.164;-2.120;2023-03-16T07:31:57;99052.41;;;5.76;100.00
22550;BME280;11441;57.164;-2.120;2023-03-16T07:34:32;99050.59;;;5.84;100.00
22550;BME280;11441;57.164;-2.120;2023-03-16T07:36:59;99064.28;;;5.84;100.00
22550;BME280;11441;57.164;-2.120;2023-03-16T07:39:29;99063.03;;;5.81;100.00
22550;BME280;11441;57.164;-2.120;2023-03-16T07:42:04;99066.66;;;5.85;100.00
22550;BME280;11441;57.164;-2.120;2023-03-16T07:44:51;99060.75;;;5.83;100.00
22550;BME280;11441;57.164;-2.120;2023-03-16T07:47:18;99055.19;;;5.80;100.00
22550;BME280;11441;57.164;-2.120;2023-03-16T07:49:45;99047.72;;;5.96;100.00
22550;BME280;11441;57.164;-2.120;2023-03-16T07:52:30;99047.28;;;5.94;100.00
22550;BME280;11441;57.164;-2.120;2023-03-16T07:54:57;99043.38;;;5.95;100.00
22550;BME280;11441;57.164;-2.120;2023-03-16T07:57:24;99038.44;;;6.01;100.00
22550;BME280;11441;57.164;-2.120;2023-03-16T07:59:52;99035.63;;;5.97;100.00
22550;BME280;11441;57.164;-2.120;2023-03-16T08:02:19;99039.16;;;5.98;100.00
22550;BME280;11441;57.164;-2.120;2023-03-16T08:04:48;99039.53;;;5.96;100.00
22550;BME280;11441;57.164;-2.120;2023-03-16T08:07:15;99028.66;;;6.00;100.00
22550;BME280;11441;57.164;-2.120;2023-03-16T08:10:00;99029.28;;;5.93;100.00
22550;BME280;11441;57.164;-2.120;2023-03-16T08:12:34;99030.31;;;6.04;100.00
22550;BME280;11441;57.164;-2.120;2023-03-16T08:15:01;99023.19;;;6.00;100.00
22550;BME280;11441;57.164;-2.120;2023-03-16T08:17:49;99019.63;;;5.96;100.00
22550;BME280;11441;57.164;-2.120;2023-03-16T08:20:21;99015.34;;;5.98;100.00
22550;BME280;11441;57.164;-2.120;2023-03-16T08:22:48;98993.19;;;5.80;100.00
22550;BME280;11441;57.164;-2.120;2023-03-16T08:25:21;99013.97;;;6.08;100.00
22550;BME280;11441;57.164;-2.120;2023-03-16T08:28:11;99004.53;;;6.06;100.00
22550;BME280;11441;57.164;-2.120;2023-03-16T08:30:49;99004.47;;;6.02;100.00
22550;BME280;11441;57.164;-2.120;2023-03-16T08:33:47;98998.97;;;5.98;100.00
22550;BME280;11441;57.164;-2.120;2023-03-16T08:36:18;98991.34;;;6.11;100.00
22550;BME280;11441;57.164;-2.120;2023-03-16T08:38:51;98991.59;;;6.02;100.00
22550;BME280;11441;57.164;-2.120;2023-03-16T08:41:36;98969.69;;;5.99;100.00
22550;BME280;11441;57.164;-2.120;2023-03-16T08:44:08;98989.06;;;6.13;100.00
22550;BME280;11441;57.164;-2.120;2023-03-16T08:46:36;98985.50;;;6.13;100.00
22550;BME280;11441;57.164;-2.120;2023-03-16T08:49:03;98983.97;;;6.12;100.00
22550;BME280;11441;57.164;-2.120;2023-03-16T08:51:30;98989.47;;;6.15;100.00
22550;BME280;11441;57.164;-2.120;2023-03-16T08:53:58;98983.69;;;6.20;100.00
22550;BME280;11441;57.164;-2.120;2023-03-16T08:56:25;98970.03;;;6.20;100.00
22550;BME280;11441;57.164;-2.120;2023-03-16T08:58:52;98962.34;;;6.30;100.00
22550;BME280;11441;57.164;-2.120;2023-03-16T09:01:18;98950.16;;;6.23;100.00
22550;BME280;11441;57.164;-2.120;2023-03-16T09:03:46;98962.66;;;6.25;100.00
22550;BME280;11441;57.164;-2.120;2023-03-16T09:06:14;98959.16;;;6.24;100.00
22550;BME280;11441;57.164;-2.120;2023-03-16T09:08:41;98957.56;;;6.23;100.00
22550;BME280;11441;57.164;-2.120;2023-03-16T09:11:13;98958.56;;;6.38;100.00
22550;BME280;11441;57.164;-2.120;2023-03-16T09:13:41;98950.78;;;6.40;100.00
22550;BME280;11441;57.164;-2.120;2023-03-16T09:16:09;98953.06;;;6.34;100.00
22550;BME280;11441;57.164;-2.120;2023-03-16T09:18:36;98946.34;;;6.32;100.00
22550;BME280;11441;57.164;-2.120;2023-03-16T09:21:05;98952.94;;;6.27;100.00
22550;BME280;11441;57.164;-2.120;2023-03-16T09:23:33;98951.31;;;6.22;100.00
22550;BME280;11441;57.164;-2.120;2023-03-16T09:26:04;98949.50;;;6.34;100.00
22550;BME280;11441;57.164;-2.120;2023-03-16T09:28:34;98947.03;;;6.52;100.00
22550;BME280;11441;57.164;-2.120;2023-03-16T09:31:01;98945.50;;;6.54;100.00
22550;BME280;11441;57.164;-2.120;2023-03-16T09:33:29;98945.13;;;6.56;100.00
22550;BME280;11441;57.164;-2.120;2023-03-16T09:35:58;98941.28;;;6.60;100.00
22550;BME280;11441;57.164;-2.120;2023-03-16T09:38:26;98930.84;;;6.70;100.00
22550;BME280;11441;57.164;-2.120;2023-03-16T09:41:08;98922.00;;;6.50;100.00
22550;BME280;11441;57.164;-2.120;2023-03-16T09:43:39;98932.28;;;6.60;100.00
22550;BME280;11441;57.164;-2.120;2023-03-16T09:46:22;98933.09;;;6.60;100.00
22550;BME280;11441;57.164;-2.120;2023-03-16T09:48:50;98918.22;;;6.61;100.00
22550;BME280;11441;57.164;-2.120;2023-03-16T09:53:49;98905.63;;;6.84;100.00
22550;BME280;11441;57.164;-2.120;2023-03-16T09:56:32;98913.66;;;6.69;100.00
22550;BME280;11441;57.164;-2.120;2023-03-16T09:59:09;98908.38;;;6.87;100.00
22550;BME280;11441;57.164;-2.120;2023-03-16T10:05:19;98909.84;;;7.11;100.00
22550;BME280;11441;57.164;-2.120;2023-03-16T10:12:58;98902.25;;;6.97;100.00
22550;BME280;11441;57.164;-2.120;2023-03-16T10:15:29;98896.63;;;7.21;100.00
22550;BME280;11441;57.164;-2.120;2023-03-16T10:20:33;98891.94;;;7.21;100.00
22550;BME280;11441;57.164;-2.120;2023-03-16T10:23:12;98887.28;;;7.25;100.00
22550;BME280;11441;57.164;-2.120;2023-03-16T10:26:08;98886.50;;;7.25;100.00
22550;BME280;11441;57.164;-2.120;2023-03-16T10:28:38;98874.34;;;7.22;100.00
22550;BME280;11441;57.164;-2.120;2023-03-16T10:31:05;98880.69;;;7.30;100.00
22550;BME280;11441;57.164;-2.120;2023-03-16T10:33:33;98890.13;;;7.36;100.00
22550;BME280;11441;57.164;-2.120;2023-03-16T10:36:34;98887.47;;;7.47;100.00
22550;BME280;11441;57.164;-2.120;2023-03-16T10:39:11;98885.41;;;7.36;100.00
22550;BME280;11441;57.164;-2.120;2023-03-16T10:41:44;98883.03;;;7.31;100.00
22550;BME280;11441;57.164;-2.120;2023-03-16T10:44:13;98873.94;;;7.20;100.00
22550;BME280;11441;57.164;-2.120;2023-03-16T10:46:46;98880.06;;;7.47;100.00
22550;BME280;11441;57.164;-2.120;2023-03-16T10:49:23;98875.78;;;7.50;100.00
22550;BME280;11441;57.164;-2.120;2023-03-16T10:51:58;98873.75;;;7.43;100.00
22550;BME280;11441;57.164;-2.120;2023-03-16T10:54:35;98864.91;;;7.61;100.00
22550;BME280;11441;57.164;-2.120;2023-03-16T10:59:52;98847.06;;;7.33;100.00
22550;BME280;11441;57.164;-2.120;2023-03-16T11:02:22;98862.34;;;7.34;100.00
22550;BME280;11441;57.164;-2.120;2023-03-16T11:04:49;98854.06;;;7.27;100.00
22550;BME280;11441;57.164;-2.120;2023-03-16T11:07:17;98850.09;;;7.24;100.00
22550;BME280;11441;57.164;-2.120;2023-03-16T11:09:45;98847.09;;;7.40;100.00
22550;BME280;11441;57.164;-2.120;2023-03-16T11:12:20;98846.72;;;7.38;100.00
22550;BME280;11441;57.164;-2.120;2023-03-16T11:14:48;98845.59;;;7.46;100.00
22550;BME280;11441;57.164;-2.120;2023-03-16T11:17:20;98849.47;;;7.42;100.00
22550;BME280;11441;57.164;-2.120;2023-03-16T11:19:52;98840.94;;;7.50;100.00
22550;BME280;11441;57.164;-2.120;2023-03-16T11:22:24;98836.53;;;7.35;100.00
22550;BME280;11441;57.164;-2.120;2023-03-16T11:24:53;98832.88;;;7.20;100.00
22550;BME280;11441;57.164;-2.120;2023-03-16T11:27:35;98833.84;;;7.42;100.00
22550;BME280;11441;57.164;-2.120;2023-03-16T11:32:51;98825.50;;;7.28;100.00
22550;BME280;11441;57.164;-2.120;2023-03-16T11:35:24;98820.00;;;7.28;100.00
22550;BME280;11441;57.164;-2.120;2023-03-16T11:41:10;98822.06;;;7.38;100.00
22550;BME280;11441;57.164;-2.120;2023-03-16T11:44:01;98808.41;;;7.45;100.00
22550;BME280;11441;57.164;-2.120;2023-03-16T12:00:43;98794.50;;;7.16;100.00
22550;BME280;11441;57.164;-2.120;2023-03-16T12:11:53;98778.84;;;7.17;100.00
22550;BME280;11441;57.164;-2.120;2023-03-16T12:14:31;98777.22;;;7.09;100.00
22550;BME280;11441;57.164;-2.120;2023-03-16T12:17:05;98774.53;;;7.12;100.00
22550;BME280;11441;57.164;-2.120;2023-03-16T12:19:45;98783.22;;;7.25;100.00
22550;BME280;11441;57.164;-2.120;2023-03-16T12:22:43;98776.50;;;7.15;100.00
22550;BME280;11441;57.164;-2.120;2023-03-16T12:25:38;98769.16;;;7.27;100.00
22550;BME280;11441;57.164;-2.120;2023-03-16T12:28:05;98767.97;;;7.24;100.00
22550;BME280;11441;57.164;-2.120;2023-03-16T12:30:52;98766.84;;;7.29;100.00
22550;BME280;11441;57.164;-2.120;2023-03-16T12:33:44;98766.16;;;7.43;100.00
22550;BME280;11441;57.164;-2.120;2023-03-16T12:44:53;98771.06;;;7.23;100.00
22550;BME280;11441;57.164;-2.120;2023-03-16T12:50:06;98770.84;;;7.42;100.00
22550;BME280;11441;57.164;-2.120;2023-03-16T12:52:52;98767.41;;;7.52;100.00
22550;BME280;11441;57.164;-2.120;2023-03-16T12:57:48;98777.25;;;7.64;100.00
22550;BME280;11441;57.164;-2.120;2023-03-16T13:00:17;98774.53;;;7.71;100.00
22550;BME280;11441;57.164;-2.120;2023-03-16T13:02:54;98769.19;;;7.89;100.00
22550;BME280;11441;57.164;-2.120;2023-03-16T13:06:05;98769.88;;;7.76;100.00
22550;BME280;11441;57.164;-2.120;2023-03-16T13:08:51;98761.69;;;7.83;100.00
22550;BME280;11441;57.164;-2.120;2023-03-16T13:11:20;98753.53;;;7.93;100.00
22550;BME280;11441;57.164;-2.120;2023-03-16T13:16:32;98748.03;;;7.90;100.00
22550;BME280;11441;57.164;-2.120;2023-03-16T13:19:24;98755.19;;;8.12;100.00
22550;BME280;11441;57.164;-2.120;2023-03-16T13:22:01;98758.69;;;8.09;100.00
22550;BME280;11441;57.164;-2.120;2023-03-16T13:24:37;98757.59;;;8.25;100.00
22550;BME280;11441;57.164;-2.120;2023-03-16T13:27:18;98747.75;;;8.17;100.00
22550;BME280;11441;57.164;-2.120;2023-03-16T13:29:57;98715.66;;;8.28;100.00
22550;BME280;11441;57.164;-2.120;2023-03-16T13:32:29;98749.03;;;8.44;100.00
22550;BME280;11441;57.164;-2.120;2023-03-16T13:34:59;98745.94;;;8.57;100.00
22550;BME280;11441;57.164;-2.120;2023-03-16T13:37:28;98738.13;;;8.59;100.00
22550;BME280;11441;57.164;-2.120;2023-03-16T13:40:00;98733.03;;;8.75;100.00
22550;BME280;11441;57.164;-2.120;2023-03-16T13:42:31;98727.56;;;8.86;100.00
22550;BME280;11441;57.164;-2.120;2023-03-16T13:45:10;98723.25;;;8.92;100.00
22550;BME280;11441;57.164;-2.120;2023-03-16T13:47:41;98722.47;;;9.06;100.00
22550;BME280;11441;57.164;-2.120;2023-03-16T13:50:12;98719.75;;;9.06;100.00
22550;BME280;11441;57.164;-2.120;2023-03-16T13:52:40;98727.19;;;9.20;100.00
22550;BME280;11441;57.164;-2.120;2023-03-16T13:55:22;98715.81;;;9.25;100.00
22550;BME280;11441;57.164;-2.120;2023-03-16T13:57:51;98720.91;;;9.12;100.00
22550;BME280;11441;57.164;-2.120;2023-03-16T14:00:21;98709.09;;;9.37;100.00
22550;BME280;11441;57.164;-2.120;2023-03-16T14:02:55;98707.16;;;9.41;100.00
22550;BME280;11441;57.164;-2.120;2023-03-16T14:05:28;98686.28;;;9.54;100.00
22550;BME280;11441;57.164;-2.120;2023-03-16T14:08:19;98691.41;;;9.52;100.00
22550;BME280;11441;57.164;-2.120;2023-03-16T14:10:47;98683.94;;;9.60;100.00
22550;BME280;11441;57.164;-2.120;2023-03-16T14:16:01;98689.38;;;9.74;100.00
22550;BME280;11441;57.164;-2.120;2023-03-16T14:18:39;98681.44;;;9.98;100.00
22550;BME280;11441;57.164;-2.120;2023-03-16T14:21:09;98675.53;;;10.07;100.00
22550;BME280;11441;57.164;-2.120;2023-03-16T14:23:43;98676.56;;;10.27;100.00
22550;BME280;11441;57.164;-2.120;2023-03-16T14:26:43;98670.72;;;10.22;100.00
22550;BME280;11441;57.164;-2.120;2023-03-16T14:29:22;98671.81;;;10.38;100.00